sensor_id;sensor_type;location;lat;lon;timestamp;pressure;altitude;pressure_sealevel;temperature;humidity
72359;BME280;60317;48.880;-0.862;2022-08-19T00:01:23;100497.28;;;22.15;58.44
72359;BME280;60317;48.880;-0.862;2022-08-19T00:03:55;100493.72;;;22.14;58.76
72359;BME280;60317;48.880;-0.862;2022-08-19T00:06:21;100510.75;;;22.15;58.78
72359;BME280;60317;48.880;-0.862;2022-08-19T00:08:48;100519.75;;;22.14;58.98
72359;BME280;60317;48.880;-0.862;2022-08-19T00:11:14;100506.47;;;22.12;58.89
72359;BME280;60317;48.880;-0.862;2022-08-19T00:13:51;100509.88;;;22.14;59.25
72359;BME280;60317;48.880;-0.862;2022-08-19T00:16:18;100519.75;;;22.14;59.38
72359;BME280;60317;48.880;-0.862;2022-08-19T00:18:52;100506.47;;;22.12;59.66
72359;BME280;60317;48.880;-0.862;2022-08-19T00:21:19;100508.31;;;22.12;59.79
72359;BME280;60317;48.880;-0.862;2022-08-19T00:23:45;100511.00;;;22.12;59.78
72359;BME280;60317;48.880;-0.862;2022-08-19T00:26:12;100510.16;;;22.11;60.05
72359;BME280;60317;48.880;-0.862;2022-08-19T00:28:38;100504.78;;;22.11;60.21
72359;BME280;60317;48.880;-0.862;2022-08-19T00:31:08;100509.16;;;22.12;60.08
72359;BME280;60317;48.880;-0.862;2022-08-19T00:33:35;100495.69;;;22.12;60.23
72359;BME280;60317;48.880;-0.862;2022-08-19T00:36:05;100499.22;;;22.13;60.16
72359;BME280;60317;48.880;-0.862;2022-08-19T00:38:34;100509.00;;;22.14;60.25
72359;BME280;60317;48.880;-0.862;2022-08-19T00:41:04;100506.31;;;22.14;60.51
72359;BME280;60317;48.880;-0.862;2022-08-19T00:43:30;100506.31;;;22.14;60.55
72359;BME280;60317;48.880;-0.862;2022-08-19T00:45:57;100495.53;;;22.14;60.35
72359;BME280;60317;48.880;-0.862;2022-08-19T00:48:23;100495.53;;;22.14;60.58
72359;BME280;60317;48.880;-0.862;2022-08-19T00:50:51;100506.47;;;22.12;60.63
72359;BME280;60317;48.880;-0.862;2022-08-19T00:53:22;100490.59;;;22.09;60.77
72359;BME280;60317;48.880;-0.862;2022-08-19T00:55:51;100491.44;;;22.10;60.75
72359;BME280;60317;48.880;-0.862;2022-08-19T00:58:20;100486.78;;;22.12;60.70
72359;BME280;60317;48.880;-0.862;2022-08-19T01:00:48;100482.50;;;22.09;60.72
72359;BME280;60317;48.880;-0.862;2022-08-19T01:03:17;100477.97;;;22.10;60.75
72359;BME280;60317;48.880;-0.862;2022-08-19T01:05:45;100469.91;;;22.10;60.71
72359;BME280;60317;48.880;-0.862;2022-08-19T01:08:14;100474.28;;;22.11;60.52
72359;BME280;60317;48.880;-0.862;2022-08-19T01:10:45;100473.44;;;22.10;60.39
72359;BME280;60317;48.880;-0.862;2022-08-19T01:13:14;100477.84;;;22.11;60.58
72359;BME280;60317;48.880;-0.862;2022-08-19T01:15:44;100474.28;;;22.11;60.44
72359;BME280;60317;48.880;-0.862;2022-08-19T01:18:14;100473.44;;;22.10;60.44
72359;BME280;60317;48.880;-0.862;2022-08-19T01:20:42;100470.75;;;22.10;60.47
72359;BME280;60317;48.880;-0.862;2022-08-19T01:23:10;100467.22;;;22.10;60.50
72359;BME280;60317;48.880;-0.862;2022-08-19T01:25:44;100473.59;;;22.09;60.41
72359;BME280;60317;48.880;-0.862;2022-08-19T01:28:15;100484.19;;;22.10;60.41
72359;BME280;60317;48.880;-0.862;2022-08-19T01:30:42;100479.66;;;22.11;60.34
72359;BME280;60317;48.880;-0.862;2022-08-19T01:33:16;100484.38;;;22.09;60.43
72359;BME280;60317;48.880;-0.862;2022-08-19T01:35:43;100474.59;;;22.08;60.25
72359;BME280;60317;48.880;-0.862;2022-08-19T01:38:20;100473.59;;;22.09;60.24
72359;BME280;60317;48.880;-0.862;2022-08-19T01:40:50;100472.59;;;22.10;60.26
72359;BME280;60317;48.880;-0.862;2022-08-19T01:43:16;100472.59;;;22.10;60.41
72359;BME280;60317;48.880;-0.862;2022-08-19T01:45:43;100467.09;;;22.11;60.46
72359;BME280;60317;48.880;-0.862;2022-08-19T01:48:09;100462.66;;;22.10;60.28
72359;BME280;60317;48.880;-0.862;2022-08-19T01:50:36;100467.22;;;22.10;60.25
72359;BME280;60317;48.880;-0.862;2022-08-19T01:53:05;100461.69;;;22.11;60.17
72359;BME280;60317;48.880;-0.862;2022-08-19T01:55:36;100473.44;;;22.10;60.32
72359;BME280;60317;48.880;-0.862;2022-08-19T01:58:08;100469.78;;;22.11;60.25
72359;BME280;60317;48.880;-0.862;2022-08-19T02:00:36;100464.53;;;22.10;60.22
72359;BME280;60317;48.880;-0.862;2022-08-19T02:03:03;100468.91;;;22.11;60.24
72359;BME280;60317;48.880;-0.862;2022-08-19T02:05:29;100468.06;;;22.10;60.35
72359;BME280;60317;48.880;-0.862;2022-08-19T02:07:56;100463.97;;;22.06;60.30
72359;BME280;60317;48.880;-0.862;2022-08-19T02:10:23;100472.03;;;22.06;60.35
72359;BME280;60317;48.880;-0.862;2022-08-19T02:12:51;100465.66;;;22.07;60.31
72359;BME280;60317;48.880;-0.862;2022-08-19T02:15:19;100463.84;;;22.08;60.26
72359;BME280;60317;48.880;-0.862;2022-08-19T02:17:47;100470.91;;;22.09;60.28
72359;BME280;60317;48.880;-0.862;2022-08-19T02:20:14;100473.44;;;22.10;60.26
72359;BME280;60317;48.880;-0.862;2022-08-19T02:22:42;100468.91;;;22.11;60.24
72359;BME280;60317;48.880;-0.862;2022-08-19T02:25:09;100468.91;;;22.11;60.24
72359;BME280;60317;48.880;-0.862;2022-08-19T02:27:36;100467.22;;;22.10;60.32
72359;BME280;60317;48.880;-0.862;2022-08-19T02:30:06;100467.22;;;22.10;60.31
72359;BME280;60317;48.880;-0.862;2022-08-19T02:32:39;100464.53;;;22.10;60.27
72359;BME280;60317;48.880;-0.862;2022-08-19T02:35:10;100460.13;;;22.09;60.06
72359;BME280;60317;48.880;-0.862;2022-08-19T02:37:38;100459.13;;;22.10;60.22
72359;BME280;60317;48.880;-0.862;2022-08-19T02:40:05;100458.44;;;22.08;60.23
72359;BME280;60317;48.880;-0.862;2022-08-19T02:42:38;100464.69;;;22.08;60.20
72359;BME280;60317;48.880;-0.862;2022-08-19T02:45:06;100458.44;;;22.08;60.38
72359;BME280;60317;48.880;-0.862;2022-08-19T02:47:33;100456.72;;;22.07;60.28
72359;BME280;60317;48.880;-0.862;2022-08-19T02:50:00;100462.00;;;22.08;60.19
72359;BME280;60317;48.880;-0.862;2022-08-19T02:52:27;100465.66;;;22.07;60.10
72359;BME280;60317;48.880;-0.862;2022-08-19T02:54:54;100470.91;;;22.09;60.19
72359;BME280;60317;48.880;-0.862;2022-08-19T02:57:20;100474.44;;;22.09;60.28
72359;BME280;60317;48.880;-0.862;2022-08-19T02:59:47;100465.53;;;22.09;60.21
72359;BME280;60317;48.880;-0.862;2022-08-19T03:02:15;100471.75;;;22.09;60.29
72359;BME280;60317;48.880;-0.862;2022-08-19T03:04:41;100473.59;;;22.09;60.29
72359;BME280;60317;48.880;-0.862;2022-08-19T03:07:09;100474.59;;;22.08;60.33
72359;BME280;60317;48.880;-0.862;2022-08-19T03:09:37;100463.84;;;22.08;60.33
72359;BME280;60317;48.880;-0.862;2022-08-19T03:12:04;100467.38;;;22.08;60.43
72359;BME280;60317;48.880;-0.862;2022-08-19T03:14:31;100467.38;;;22.08;60.36
72359;BME280;60317;48.880;-0.862;2022-08-19T03:16:58;100473.59;;;22.09;60.51
72359;BME280;60317;48.880;-0.862;2022-08-19T03:19:26;100476.28;;;22.09;60.40
72359;BME280;60317;48.880;-0.862;2022-08-19T03:21:53;100468.34;;;22.07;60.63
72359;BME280;60317;48.880;-0.862;2022-08-19T03:24:20;100468.34;;;22.07;60.63
72359;BME280;60317;48.880;-0.862;2022-08-19T03:26:49;100448.66;;;22.07;60.57
72359;BME280;60317;48.880;-0.862;2022-08-19T03:29:17;100452.19;;;22.07;60.49
72359;BME280;60317;48.880;-0.862;2022-08-19T03:31:56;100463.84;;;22.08;60.70
72359;BME280;60317;48.880;-0.862;2022-08-19T03:34:26;100453.91;;;22.08;60.78
72359;BME280;60317;48.880;-0.862;2022-08-19T03:36:54;100454.75;;;22.09;60.68
72359;BME280;60317;48.880;-0.862;2022-08-19T03:39:21;100457.44;;;22.09;60.79
72359;BME280;60317;48.880;-0.862;2022-08-19T03:41:52;100457.44;;;22.09;60.88
72359;BME280;60317;48.880;-0.862;2022-08-19T03:44:38;100454.75;;;22.09;61.01
72359;BME280;60317;48.880;-0.862;2022-08-19T03:47:05;100460.97;;;22.09;61.13
72359;BME280;60317;48.880;-0.862;2022-08-19T03:49:33;100461.81;;;22.10;60.85
72359;BME280;60317;48.880;-0.862;2022-08-19T03:52:00;100462.81;;;22.09;60.83
72359;BME280;60317;48.880;-0.862;2022-08-19T03:54:27;100462.00;;;22.08;60.99
72359;BME280;60317;48.880;-0.862;2022-08-19T03:56:55;100468.34;;;22.07;61.15
72359;BME280;60317;48.880;-0.862;2022-08-19T03:59:24;100471.03;;;22.07;61.29
72359;BME280;60317;48.880;-0.862;2022-08-19T04:01:52;100474.59;;;22.08;61.32
72359;BME280;60317;48.880;-0.862;2022-08-19T04:04:18;100466.81;;;22.05;61.32
72359;BME280;60317;48.880;-0.862;2022-08-19T04:06:47;100467.50;;;22.07;61.28
72359;BME280;60317;48.880;-0.862;2022-08-19T04:09:14;100470.19;;;22.07;61.37
72359;BME280;60317;48.880;-0.862;2022-08-19T04:11:42;100461.16;;;22.08;61.34
72359;BME280;60317;48.880;-0.862;2022-08-19T04:14:12;100458.44;;;22.08;61.32
72359;BME280;60317;48.880;-0.862;2022-08-19T04:16:38;100457.44;;;22.09;61.38
72359;BME280;60317;48.880;-0.862;2022-08-19T04:19:05;100456.44;;;22.10;61.46
72359;BME280;60317;48.880;-0.862;2022-08-19T04:21:33;100463.84;;;22.08;61.53
72359;BME280;60317;48.880;-0.862;2022-08-19T04:24:02;100462.97;;;22.07;61.64
72359;BME280;60317;48.880;-0.862;2022-08-19T04:26:32;100463.84;;;22.08;61.83
72359;BME280;60317;48.880;-0.862;2022-08-19T04:28:59;100463.84;;;22.08;61.82
72359;BME280;60317;48.880;-0.862;2022-08-19T04:31:28;100462.81;;;22.09;61.85
72359;BME280;60317;48.880;-0.862;2022-08-19T04:33:56;100462.97;;;22.07;61.89
72359;BME280;60317;48.880;-0.862;2022-08-19T04:36:25;100467.50;;;22.07;62.21
72359;BME280;60317;48.880;-0.862;2022-08-19T04:38:53;100461.44;;;22.05;62.18
72359;BME280;60317;48.880;-0.862;2022-08-19T04:41:22;100464.81;;;22.07;62.18
72359;BME280;60317;48.880;-0.862;2022-08-19T04:43:48;100468.50;;;22.06;62.36
72359;BME280;60317;48.880;-0.862;2022-08-19T04:46:15;100471.19;;;22.06;62.27
72359;BME280;60317;48.880;-0.862;2022-08-19T04:49:04;100473.03;;;22.05;62.49
72359;BME280;60317;48.880;-0.862;2022-08-19T04:51:40;100469.34;;;22.06;62.47
72359;BME280;60317;48.880;-0.862;2022-08-19T04:54:07;100472.03;;;22.06;62.47
72359;BME280;60317;48.880;-0.862;2022-08-19T04:56:35;100471.03;;;22.07;62.51
72359;BME280;60317;48.880;-0.862;2022-08-19T04:59:02;100469.22;;;22.08;62.57
72359;BME280;60317;48.880;-0.862;2022-08-19T05:01:30;100470.19;;;22.07;62.67
72359;BME280;60317;48.880;-0.862;2022-08-19T05:03:57;100471.03;;;22.07;62.62
72359;BME280;60317;48.880;-0.862;2022-08-19T05:06:24;100469.34;;;22.06;62.62
72359;BME280;60317;48.880;-0.862;2022-08-19T05:08:50;100477.28;;;22.08;62.64
72359;BME280;60317;48.880;-0.862;2022-08-19T05:11:19;100479.09;;;22.07;62.82
72359;BME280;60317;48.880;-0.862;2022-08-19T05:13:53;100479.09;;;22.07;62.84
72359;BME280;60317;48.880;-0.862;2022-08-19T05:16:21;100477.41;;;22.06;63.02
72359;BME280;60317;48.880;-0.862;2022-08-19T05:18:48;100474.88;;;22.05;63.03
72359;BME280;60317;48.880;-0.862;2022-08-19T05:21:18;100469.50;;;22.05;62.99
72359;BME280;60317;48.880;-0.862;2022-08-19T05:23:45;100478.41;;;22.05;63.10
72359;BME280;60317;48.880;-0.862;2022-08-19T05:26:11;100480.25;;;22.05;63.21
72359;BME280;60317;48.880;-0.862;2022-08-19T05:28:38;100475.72;;;22.05;63.16
72359;BME280;60317;48.880;-0.862;2022-08-19T05:31:05;100476.56;;;22.06;63.30
72359;BME280;60317;48.880;-0.862;2022-08-19T05:33:32;100481.94;;;22.06;63.33
72359;BME280;60317;48.880;-0.862;2022-08-19T05:35:58;100481.94;;;22.06;63.42
72359;BME280;60317;48.880;-0.862;2022-08-19T05:38:25;100481.94;;;22.06;63.18
72359;BME280;60317;48.880;-0.862;2022-08-19T05:40:51;100479.25;;;22.06;63.41
72359;BME280;60317;48.880;-0.862;2022-08-19T05:43:18;100480.25;;;22.05;63.42
72359;BME280;60317;48.880;-0.862;2022-08-19T05:45:44;100479.25;;;22.06;63.49
72359;BME280;60317;48.880;-0.862;2022-08-19T05:48:13;100486.50;;;22.05;63.28
72359;BME280;60317;48.880;-0.862;2022-08-19T05:50:41;100481.94;;;22.06;63.58
72359;BME280;60317;48.880;-0.862;2022-08-19T05:53:07;100487.34;;;22.06;63.45
72359;BME280;60317;48.880;-0.862;2022-08-19T05:55:34;100483.94;;;22.04;63.75
72359;BME280;60317;48.880;-0.862;2022-08-19T05:58:01;100491.03;;;22.05;63.62
72359;BME280;60317;48.880;-0.862;2022-08-19T06:00:27;100483.94;;;22.04;63.84
72359;BME280;60317;48.880;-0.862;2022-08-19T06:02:53;100490.31;;;22.03;63.66
72359;BME280;60317;48.880;-0.862;2022-08-19T06:05:22;100493.84;;;22.03;63.88
72359;BME280;60317;48.880;-0.862;2022-08-19T06:07:48;100503.66;;;22.04;63.65
72359;BME280;60317;48.880;-0.862;2022-08-19T06:10:15;100500.94;;;22.04;63.73
72359;BME280;60317;48.880;-0.862;2022-08-19T06:12:41;100492.88;;;22.04;63.93
72359;BME280;60317;48.880;-0.862;2022-08-19T06:15:11;100493.72;;;22.05;63.82
72359;BME280;60317;48.880;-0.862;2022-08-19T06:17:38;100499.94;;;22.05;63.83
72359;BME280;60317;48.880;-0.862;2022-08-19T06:20:07;100492.88;;;22.04;63.66
72359;BME280;60317;48.880;-0.862;2022-08-19T06:22:38;100485.66;;;22.05;63.85
72359;BME280;60317;48.880;-0.862;2022-08-19T06:25:06;100483.94;;;22.04;64.05
72359;BME280;60317;48.880;-0.862;2022-08-19T06:27:32;100491.03;;;22.05;64.07
72359;BME280;60317;48.880;-0.862;2022-08-19T06:30:00;100491.88;;;22.05;64.09
72359;BME280;60317;48.880;-0.862;2022-08-19T06:32:26;100496.41;;;22.05;64.09
72359;BME280;60317;48.880;-0.862;2022-08-19T06:34:53;100495.69;;;22.03;64.15
72359;BME280;60317;48.880;-0.862;2022-08-19T06:37:19;100491.31;;;22.02;64.17
72359;BME280;60317;48.880;-0.862;2022-08-19T06:39:48;100492.28;;;22.01;64.14
72359;BME280;60317;48.880;-0.862;2022-08-19T06:42:16;100491.16;;;22.03;64.18
72359;BME280;60317;48.880;-0.862;2022-08-19T06:44:45;100498.53;;;22.01;64.22
72359;BME280;60317;48.880;-0.862;2022-08-19T06:47:16;100488.75;;;22.00;64.27
72359;BME280;60317;48.880;-0.862;2022-08-19T06:49:53;100498.38;;;22.03;64.28
72359;BME280;60317;48.880;-0.862;2022-08-19T06:52:19;100489.31;;;22.04;64.13
72359;BME280;60317;48.880;-0.862;2022-08-19T06:54:47;100491.03;;;22.05;64.18
72359;BME280;60317;48.880;-0.862;2022-08-19T06:57:22;100493.00;;;22.03;64.28
72359;BME280;60317;48.880;-0.862;2022-08-19T06:59:48;100500.06;;;22.04;64.25
72359;BME280;60317;48.880;-0.862;2022-08-19T07:02:15;100509.03;;;22.04;64.34
72359;BME280;60317;48.880;-0.862;2022-08-19T07:04:46;100507.19;;;22.05;64.42
72359;BME280;60317;48.880;-0.862;2022-08-19T07:07:14;100510.00;;;22.03;64.55
72359;BME280;60317;48.880;-0.862;2022-08-19T07:09:46;100512.56;;;22.05;64.49
72359;BME280;60317;48.880;-0.862;2022-08-19T07:12:29;100510.00;;;22.03;64.47
72359;BME280;60317;48.880;-0.862;2022-08-19T07:14:57;100516.22;;;22.04;64.65
72359;BME280;60317;48.880;-0.862;2022-08-19T07:17:23;100511.84;;;22.03;64.72
72359;BME280;60317;48.880;-0.862;2022-08-19T07:19:50;100512.84;;;22.02;64.60
72359;BME280;60317;48.880;-0.862;2022-08-19T07:22:21;100515.38;;;22.03;64.71
72359;BME280;60317;48.880;-0.862;2022-08-19T07:24:49;100510.00;;;22.03;64.58
72359;BME280;60317;48.880;-0.862;2022-08-19T07:27:17;100516.22;;;22.04;64.39
72359;BME280;60317;48.880;-0.862;2022-08-19T07:29:51;100512.69;;;22.03;64.72
72359;BME280;60317;48.880;-0.862;2022-08-19T07:32:22;100512.56;;;22.05;64.79
72359;BME280;60317;48.880;-0.862;2022-08-19T07:34:48;100517.09;;;22.04;64.46
72359;BME280;60317;48.880;-0.862;2022-08-19T07:37:15;100521.59;;;22.04;64.61
72359;BME280;60317;48.880;-0.862;2022-08-19T07:39:42;100533.25;;;22.04;64.55
72359;BME280;60317;48.880;-0.862;2022-08-19T07:42:10;100527.00;;;22.04;64.49
72359;BME280;60317;48.880;-0.862;2022-08-19T07:44:40;100522.47;;;22.04;64.45
72359;BME280;60317;48.880;-0.862;2022-08-19T07:47:12;100518.06;;;22.03;64.33
72359;BME280;60317;48.880;-0.862;2022-08-19T07:49:59;100525.28;;;22.03;64.52
72359;BME280;60317;48.880;-0.862;2022-08-19T07:52:25;100532.38;;;22.04;64.38
72359;BME280;60317;48.880;-0.862;2022-08-19T07:54:52;100527.88;;;22.04;64.51
72359;BME280;60317;48.880;-0.862;2022-08-19T07:57:18;100523.44;;;22.03;64.45
72359;BME280;60317;48.880;-0.862;2022-08-19T07:59:45;100528.72;;;22.05;64.31
72359;BME280;60317;48.880;-0.862;2022-08-19T08:02:13;100528.72;;;22.05;64.20
72359;BME280;60317;48.880;-0.862;2022-08-19T08:04:39;100526.03;;;22.05;64.24
72359;BME280;60317;48.880;-0.862;2022-08-19T08:07:06;100530.41;;;22.06;64.11
72359;BME280;60317;48.880;-0.862;2022-08-19T08:09:35;100531.69;;;22.02;64.02
72359;BME280;60317;48.880;-0.862;2022-08-19T08:12:07;100532.38;;;22.04;64.07
72359;BME280;60317;48.880;-0.862;2022-08-19T08:14:58;100531.41;;;22.05;63.87
72359;BME280;60317;48.880;-0.862;2022-08-19T08:17:27;100536.78;;;22.05;64.11
72359;BME280;60317;48.880;-0.862;2022-08-19T08:20:14;100533.25;;;22.04;63.96
72359;BME280;60317;48.880;-0.862;2022-08-19T08:22:43;100533.09;;;22.06;63.96
72359;BME280;60317;48.880;-0.862;2022-08-19T08:25:13;100533.09;;;22.06;63.51
72359;BME280;60317;48.880;-0.862;2022-08-19T08:27:43;100529.41;;;22.07;63.81
72359;BME280;60317;48.880;-0.862;2022-08-19T08:30:13;100533.94;;;22.06;63.89
72359;BME280;60317;48.880;-0.862;2022-08-19T08:32:42;100532.25;;;22.05;63.87
72359;BME280;60317;48.880;-0.862;2022-08-19T08:35:13;100543.00;;;22.05;63.87
72359;BME280;60317;48.880;-0.862;2022-08-19T08:37:40;100545.72;;;22.05;63.91
72359;BME280;60317;48.880;-0.862;2022-08-19T08:40:19;100535.94;;;22.04;63.76
72359;BME280;60317;48.880;-0.862;2022-08-19T08:42:50;100538.47;;;22.06;63.84
72359;BME280;60317;48.880;-0.862;2022-08-19T08:45:20;100535.06;;;22.04;63.92
72359;BME280;60317;48.880;-0.862;2022-08-19T08:47:50;100533.09;;;22.06;63.93
72359;BME280;60317;48.880;-0.862;2022-08-19T08:50:22;100524.88;;;22.07;63.78
72359;BME280;60317;48.880;-0.862;2022-08-19T08:52:53;100527.72;;;22.06;64.22
72359;BME280;60317;48.880;-0.862;2022-08-19T08:55:24;100525.88;;;22.06;64.16
72359;BME280;60317;48.880;-0.862;2022-08-19T08:57:53;100536.50;;;22.08;64.36
72359;BME280;60317;48.880;-0.862;2022-08-19T09:00:24;100530.25;;;22.07;64.18
72359;BME280;60317;48.880;-0.862;2022-08-19T09:02:52;100533.94;;;22.06;64.57
72359;BME280;60317;48.880;-0.862;2022-08-19T09:05:20;100540.16;;;22.07;64.86
72359;BME280;60317;48.880;-0.862;2022-08-19T09:07:58;100534.78;;;22.07;65.00
72359;BME280;60317;48.880;-0.862;2022-08-19T09:10:29;100532.94;;;22.07;65.06
72359;BME280;60317;48.880;-0.862;2022-08-19T09:13:09;100533.09;;;22.06;65.23
72359;BME280;60317;48.880;-0.862;2022-08-19T09:15:42;100536.63;;;22.06;65.27
72359;BME280;60317;48.880;-0.862;2022-08-19T09:18:11;100539.19;;;22.08;65.08
72359;BME280;60317;48.880;-0.862;2022-08-19T09:20:45;100540.03;;;22.08;65.41
72359;BME280;60317;48.880;-0.862;2022-08-19T09:23:12;100537.19;;;22.10;65.08
72359;BME280;60317;48.880;-0.862;2022-08-19T09:25:39;100539.88;;;22.10;65.38
72359;BME280;60317;48.880;-0.862;2022-08-19T09:28:06;100536.19;;;22.11;65.61
72359;BME280;60317;48.880;-0.862;2022-08-19T09:30:47;100530.97;;;22.09;65.69
72359;BME280;60317;48.880;-0.862;2022-08-19T09:33:15;100543.41;;;22.10;65.47
72359;BME280;60317;48.880;-0.862;2022-08-19T09:35:42;100546.00;;;22.12;65.49
72359;BME280;60317;48.880;-0.862;2022-08-19T09:38:18;100555.91;;;22.11;65.82
72359;BME280;60317;48.880;-0.862;2022-08-19T09:40:44;100550.53;;;22.11;65.73
72359;BME280;60317;48.880;-0.862;2022-08-19T09:43:11;100559.44;;;22.12;66.03
72359;BME280;60317;48.880;-0.862;2022-08-19T09:45:39;100546.00;;;22.12;66.19
72359;BME280;60317;48.880;-0.862;2022-08-19T09:48:05;100552.22;;;22.12;65.83
72359;BME280;60317;48.880;-0.862;2022-08-19T09:50:33;100550.38;;;22.13;65.78
72359;BME280;60317;48.880;-0.862;2022-08-19T09:53:00;100552.06;;;22.14;65.99
72359;BME280;60317;48.880;-0.862;2022-08-19T09:55:26;100549.38;;;22.14;65.91
72359;BME280;60317;48.880;-0.862;2022-08-19T09:57:57;100551.13;;;22.15;66.20
72359;BME280;60317;48.880;-0.862;2022-08-19T10:00:24;100557.44;;;22.14;66.32
72359;BME280;60317;48.880;-0.862;2022-08-19T10:02:50;100554.66;;;22.15;66.27
72359;BME280;60317;48.880;-0.862;2022-08-19T10:05:18;100552.06;;;22.14;66.18
72359;BME280;60317;48.880;-0.862;2022-08-19T10:07:53;100547.69;;;22.13;66.32
72359;BME280;60317;48.880;-0.862;2022-08-19T10:10:22;100552.94;;;22.14;66.27
72359;BME280;60317;48.880;-0.862;2022-08-19T10:12:50;100560.88;;;22.16;66.40
72359;BME280;60317;48.880;-0.862;2022-08-19T10:15:16;100557.34;;;22.15;66.20
72359;BME280;60317;48.880;-0.862;2022-08-19T10:17:54;100561.88;;;22.15;66.68
72359;BME280;60317;48.880;-0.862;2022-08-19T10:20:21;100564.44;;;22.17;66.23
72359;BME280;60317;48.880;-0.862;2022-08-19T10:22:47;100569.66;;;22.18;67.31
72359;BME280;60317;48.880;-0.862;2022-08-19T10:25:20;100577.72;;;22.18;67.62
72359;BME280;60317;48.880;-0.862;2022-08-19T10:27:46;100578.72;;;22.17;68.63
72359;BME280;60317;48.880;-0.862;2022-08-19T10:30:17;100590.50;;;22.16;68.49
72359;BME280;60317;48.880;-0.862;2022-08-19T10:32:45;100581.44;;;22.17;68.95
72359;BME280;60317;48.880;-0.862;2022-08-19T10:35:13;100586.81;;;22.17;68.80
72359;BME280;60317;48.880;-0.862;2022-08-19T10:37:47;100583.28;;;22.17;69.06
72359;BME280;60317;48.880;-0.862;2022-08-19T10:40:29;100583.28;;;22.17;68.62
72359;BME280;60317;48.880;-0.862;2022-08-19T10:42:55;100577.03;;;22.16;68.53
72359;BME280;60317;48.880;-0.862;2022-08-19T10:45:22;100580.56;;;22.17;68.35
72359;BME280;60317;48.880;-0.862;2022-08-19T10:47:49;100579.72;;;22.16;68.65
72359;BME280;60317;48.880;-0.862;2022-08-19T10:50:16;100574.19;;;22.18;68.91
72359;BME280;60317;48.880;-0.862;2022-08-19T10:52:45;100574.06;;;22.19;69.04
72359;BME280;60317;48.880;-0.862;2022-08-19T10:55:16;100586.81;;;22.17;68.86
72359;BME280;60317;48.880;-0.862;2022-08-19T10:57:44;100583.84;;;22.20;69.33
72359;BME280;60317;48.880;-0.862;2022-08-19T11:00:27;100584.84;;;22.19;69.55
72359;BME280;60317;48.880;-0.862;2022-08-19T11:02:54;100583.84;;;22.20;70.00
72359;BME280;60317;48.880;-0.862;2022-08-19T11:05:20;100582.00;;;22.21;69.78
72359;BME280;60317;48.880;-0.862;2022-08-19T11:07:50;100582.00;;;22.21;69.94
72359;BME280;60317;48.880;-0.862;2022-08-19T11:10:16;100585.53;;;22.21;70.10
72359;BME280;60317;48.880;-0.862;2022-08-19T11:12:49;100583.00;;;22.20;70.38
72359;BME280;60317;48.880;-0.862;2022-08-19T11:15:15;100583.84;;;22.20;70.13
72359;BME280;60317;48.880;-0.862;2022-08-19T11:17:42;100578.59;;;22.19;70.37
72359;BME280;60317;48.880;-0.862;2022-08-19T11:20:10;100594.44;;;22.22;70.22
72359;BME280;60317;48.880;-0.862;2022-08-19T11:22:38;100575.75;;;22.20;70.12
72359;BME280;60317;48.880;-0.862;2022-08-19T11:25:08;100573.91;;;22.21;70.28
72359;BME280;60317;48.880;-0.862;2022-08-19T11:27:38;100570.38;;;22.20;70.24
72359;BME280;60317;48.880;-0.862;2022-08-19T11:30:07;100572.91;;;22.22;70.39
72359;BME280;60317;48.880;-0.862;2022-08-19T11:32:39;100577.44;;;22.21;70.13
72359;BME280;60317;48.880;-0.862;2022-08-19T11:35:10;100588.09;;;22.23;70.25
72359;BME280;60317;48.880;-0.862;2022-08-19T11:37:36;100588.22;;;22.21;70.59
72359;BME280;60317;48.880;-0.862;2022-08-19T11:40:04;100589.94;;;22.22;70.56
72359;BME280;60317;48.880;-0.862;2022-08-19T11:42:31;100586.53;;;22.20;70.81
72359;BME280;60317;48.880;-0.862;2022-08-19T11:44:57;100589.06;;;22.22;71.15
72359;BME280;60317;48.880;-0.862;2022-08-19T11:47:25;100593.59;;;22.21;70.82
72359;BME280;60317;48.880;-0.862;2022-08-19T11:49:52;100585.53;;;22.21;71.16
72359;BME280;60317;48.880;-0.862;2022-08-19T11:52:18;100590.91;;;22.21;71.13
72359;BME280;60317;48.880;-0.862;2022-08-19T11:54:45;100584.69;;;22.21;71.12
72359;BME280;60317;48.880;-0.862;2022-08-19T11:57:11;100588.22;;;22.21;71.18
72359;BME280;60317;48.880;-0.862;2022-08-19T11:59:38;100595.31;;;22.22;71.45
72359;BME280;60317;48.880;-0.862;2022-08-19T12:02:05;100591.63;;;22.23;71.27
72359;BME280;60317;48.880;-0.862;2022-08-19T12:04:33;100580.88;;;22.23;71.18
72359;BME280;60317;48.880;-0.862;2022-08-19T12:07:00;100580.03;;;22.23;71.22
72359;BME280;60317;48.880;-0.862;2022-08-19T12:09:27;100585.25;;;22.24;71.19
72359;BME280;60317;48.880;-0.862;2022-08-19T12:11:56;100580.72;;;22.25;71.38
72359;BME280;60317;48.880;-0.862;2022-08-19T12:14:23;100577.16;;;22.24;71.50
72359;BME280;60317;48.880;-0.862;2022-08-19T12:16:49;100586.94;;;22.25;71.30
72359;BME280;60317;48.880;-0.862;2022-08-19T12:19:18;100590.50;;;22.26;71.07
72359;BME280;60317;48.880;-0.862;2022-08-19T12:21:50;100581.56;;;22.25;71.52
72359;BME280;60317;48.880;-0.862;2022-08-19T12:24:17;100595.91;;;22.26;71.30
72359;BME280;60317;48.880;-0.862;2022-08-19T12:26:43;100594.16;;;22.25;71.35
72359;BME280;60317;48.880;-0.862;2022-08-19T12:29:19;100606.78;;;22.24;71.44
72359;BME280;60317;48.880;-0.862;2022-08-19T12:31:49;100605.09;;;22.23;71.51
72359;BME280;60317;48.880;-0.862;2022-08-19T12:34:16;100611.31;;;22.24;71.75
72359;BME280;60317;48.880;-0.862;2022-08-19T12:36:42;100606.78;;;22.24;71.90
72359;BME280;60317;48.880;-0.862;2022-08-19T12:39:10;100598.88;;;22.23;71.88
72359;BME280;60317;48.880;-0.862;2022-08-19T12:41:39;100606.09;;;22.22;72.00
72359;BME280;60317;48.880;-0.862;2022-08-19T12:44:19;100593.59;;;22.21;72.14
72359;BME280;60317;48.880;-0.862;2022-08-19T12:46:54;100602.41;;;22.23;72.20
72359;BME280;60317;48.880;-0.862;2022-08-19T12:49:21;100605.09;;;22.23;71.91